Time;durP1;ratioP1;P1;durP2;ratioP2;P2;SDS_P1;SDS_P2;PMS_P1;PMS_P2;Temp;Humidity;BMP_temperature;BMP_pressure;BME280_temperature;BME280_humidity;BME280_pressure;Samples;Min_cycle;Max_cycle;Signal;HPM_P1;HPM_P2
2021/03/23 00:04:24;;;;;;;67.80;29.47;;;;;;;-0.81;77.80;99012.91;238657;1200;23109;-75
2021/03/23 00:09:28;;;;;;;66.40;30.30;;;;;;;-0.78;77.57;99010.67;238706;1199;23128;-73
2021/03/23 00:14:31;;;;;;;61.70;27.85;;;;;;;-0.76;78.16;99005.20;238407;1198;23109;-75
2021/03/23 00:19:34;;;;;;;64.93;28.17;;;;;;;-0.77;77.98;99003.58;238642;1200;23099;-75
2021/03/23 00:24:36;;;;;;;59.05;27.50;;;;;;;-0.80;77.72;99006.64;238686;1200;23134;-74
2021/03/23 00:29:43;;;;;;;58.00;26.80;;;;;;;-0.79;77.96;98997.73;238780;1200;23109;-74
2021/03/23 00:34:46;;;;;;;57.30;25.83;;;;;;;-0.75;77.72;99001.56;238467;1202;23145;-74
2021/03/23 00:39:48;;;;;;;53.53;25.20;;;;;;;-0.66;77.91;98996.87;238638;1200;23127;-74
2021/03/23 00:44:51;;;;;;;50.77;24.00;;;;;;;-0.62;77.73;99001.49;238535;1199;23255;-74
2021/03/23 00:49:54;;;;;;;42.80;20.83;;;;;;;-0.59;77.72;98995.83;238634;1200;23098;-75
2021/03/23 00:54:57;;;;;;;48.90;23.27;;;;;;;-0.57;77.28;98996.42;238659;1200;23111;-74
2021/03/23 00:59:59;;;;;;;46.50;22.87;;;;;;;-0.57;77.63;98998.25;238449;1200;23095;-77
2021/03/23 01:05:05;;;;;;;47.13;23.13;;;;;;;-0.60;77.07;98991.58;238537;1200;23135;-74
2021/03/23 01:10:11;;;;;;;47.60;21.40;;;;;;;-0.62;77.82;98987.54;238478;1202;23117;-75
2021/03/23 01:15:19;;;;;;;47.67;22.30;;;;;;;-0.63;77.62;98978.02;238657;1202;23186;-73
2021/03/23 01:20:25;;;;;;;50.15;22.20;;;;;;;-0.64;77.28;98979.86;238443;1200;23173;-74
2021/03/23 01:25:28;;;;;;;47.55;21.15;;;;;;;-0.58;77.57;98984.27;238522;1200;23195;-73
2021/03/23 01:30:31;;;;;;;43.63;19.60;;;;;;;-0.52;77.57;98962.39;238593;1199;23127;-74
2021/03/23 01:35:34;;;;;;;37.00;17.25;;;;;;;-0.50;77.23;98985.03;238373;1200;23567;-74
2021/03/23 01:40:39;;;;;;;45.75;20.65;;;;;;;-0.47;77.08;98989.91;238386;1199;23115;-75
2021/03/23 01:45:41;;;;;;;42.20;18.75;;;;;;;-0.39;77.53;98989.66;238457;1203;23171;-75
2021/03/23 01:51:06;;;;;;;28.10;13.73;;;;;;;-0.38;77.22;98978.09;238607;1199;23123;-75
2021/03/23 01:56:12;;;;;;;33.37;15.07;;;;;;;-0.42;77.01;98985.63;238425;1200;23129;-74
2021/03/23 02:01:17;;;;;;;35.95;16.40;;;;;;;-0.47;76.59;98974.91;238323;1200;23116;-73
2021/03/23 02:06:44;;;;;;;30.07;13.80;;;;;;;-0.47;77.05;98974.11;238531;1202;23861;-74
2021/03/23 02:12:08;;;;;;;28.97;14.07;;;;;;;-0.40;76.96;98967.78;238525;1199;23199;-75
2021/03/23 02:17:34;;;;;;;23.85;11.65;;;;;;;-0.33;76.71;98966.95;238531;1200;24723;-74
2021/03/23 02:22:40;;;;;;;28.37;12.30;;;;;;;-0.24;76.87;98973.55;238470;1199;23113;-74
2021/03/23 02:27:43;;;;;;;24.45;11.35;;;;;;;-0.14;77.10;98967.81;238599;1199;23310;-75
2021/03/23 02:32:46;;;;;;;24.53;11.93;;;;;;;-0.07;76.29;98968.57;238624;1200;23109;-73
2021/03/23 02:38:05;;;;;;;25.37;12.77;;;;;;;0.04;76.88;98970.51;238511;1200;23263;-75
2021/03/23 02:43:07;;;;;;;23.57;12.23;;;;;;;0.12;76.21;98967.61;238623;1198;23100;-74
2021/03/23 02:48:10;;;;;;;27.00;12.80;;;;;;;0.18;76.23;98962.52;238460;1200;23118;-73
2021/03/23 02:53:14;;;;;;;19.93;9.97;;;;;;;0.25;75.74;98966.72;238433;1200;23279;-74
2021/03/23 02:58:18;;;;;;;25.25;11.60;;;;;;;0.27;75.40;98969.14;238481;1199;23136;-75
2021/03/23 03:03:21;;;;;;;20.10;10.67;;;;;;;0.26;75.72;98962.24;238524;1200;23118;-75
2021/03/23 03:08:28;;;;;;;24.73;11.63;;;;;;;0.26;75.39;98967.52;238665;1200;23244;-75
2021/03/23 03:13:31;;;;;;;20.90;10.70;;;;;;;0.25;74.87;98965.89;238437;1200;23215;-74
2021/03/23 03:18:35;;;;;;;23.63;11.67;;;;;;;0.26;75.33;98968.31;238593;1198;23105;-73
2021/03/23 03:23:38;;;;;;;20.43;10.83;;;;;;;0.27;75.01;98966.50;238423;1200;23239;-74
2021/03/23 03:28:49;;;;;;;23.43;9.80;;;;;;;0.31;74.71;98965.84;238353;1199;23123;-74
2021/03/23 03:33:55;;;;;;;19.75;9.20;;;;;;;0.34;74.38;98969.88;238931;1200;23104;-74
2021/03/23 03:38:58;;;;;;;21.00;9.17;;;;;;;0.34;74.97;98960.13;238585;1200;23112;-75
2021/03/23 03:44:00;;;;;;;22.03;10.13;;;;;;;0.36;74.83;98957.27;238509;1199;26150;-75
2021/03/23 03:49:03;;;;;;;22.50;10.80;;;;;;;0.40;74.60;98965.56;238396;1200;23636;-74
2021/03/23 03:54:06;;;;;;;19.35;9.35;;;;;;;0.40;73.85;98962.93;238346;1199;23135;-75
2021/03/23 03:59:09;;;;;;;17.70;9.43;;;;;;;0.40;74.04;98960.30;238440;1200;23109;-74
2021/03/23 04:04:12;;;;;;;17.87;8.60;;;;;;;0.41;74.35;98965.34;238356;1202;23231;-74
2021/03/23 04:09:15;;;;;;;18.53;8.97;;;;;;;0.41;73.56;98969.83;238392;1200;23201;-74
2021/03/23 04:14:18;;;;;;;19.45;9.20;;;;;;;0.37;73.78;98966.01;238309;1200;23184;-74
2021/03/23 04:19:21;;;;;;;21.40;10.40;;;;;;;0.36;73.46;98978.36;238613;1202;23141;-75
2021/03/23 04:24:25;;;;;;;19.15;9.80;;;;;;;0.38;74.06;98972.87;238501;1200;23273;-74
2021/03/23 04:29:27;;;;;;;19.70;9.27;;;;;;;0.38;73.59;98976.33;238557;1200;23081;-74
2021/03/23 04:34:30;;;;;;;22.57;11.17;;;;;;;0.35;73.21;98979.41;238321;1200;23269;-74
2021/03/23 04:39:38;;;;;;;20.55;9.85;;;;;;;0.36;73.89;98988.11;238473;1202;23135;-75
2021/03/23 04:44:41;;;;;;;22.00;10.57;;;;;;;0.36;73.32;98988.91;238483;1202;23118;-74
2021/03/23 04:49:43;;;;;;;23.70;10.10;;;;;;;0.36;73.20;98986.27;238313;1200;23250;-75
2021/03/23 04:54:47;;;;;;;18.30;8.70;;;;;;;0.34;73.14;98988.33;238379;1200;23127;-74
2021/03/23 04:59:52;;;;;;;22.80;10.73;;;;;;;0.34;73.56;98981.22;238367;1200;23124;-74
2021/03/23 05:04:55;;;;;;;23.00;10.55;;;;;;;0.37;73.55;98979.98;238502;1202;24904;-73
2021/03/23 05:09:59;;;;;;;20.50;10.47;;;;;;;0.42;73.25;98981.95;238467;1200;23105;-74
2021/03/23 05:15:09;;;;;;;21.60;10.20;;;;;;;0.49;73.63;98986.16;238434;1200;23128;-75
2021/03/23 05:20:12;;;;;;;22.00;9.80;;;;;;;0.58;73.55;98989.31;238407;1199;23203;-74
2021/03/23 05:25:16;;;;;;;20.20;9.07;;;;;;;0.68;73.68;98980.91;238579;1199;23197;-74
2021/03/23 05:30:21;;;;;;;22.40;10.25;;;;;;;0.83;73.43;98989.27;238496;1199;23112;-75
2021/03/23 05:35:24;;;;;;;20.00;11.00;;;;;;;1.00;73.47;98996.60;238546;1199;26421;-74
2021/03/23 05:40:37;;;;;;;21.10;10.23;;;;;;;1.13;72.55;98985.88;238467;1200;23144;-74
2021/03/23 05:45:41;;;;;;;18.50;8.90;;;;;;;1.25;73.00;98990.44;238743;1200;23130;-74
2021/03/23 05:51:10;;;;;;;21.07;9.50;;;;;;;1.38;72.55;98992.91;238662;1200;23125;-74
2021/03/23 05:56:22;;;;;;;22.17;8.27;;;;;;;1.48;72.19;98990.55;238532;1200;23115;-74
2021/03/23 06:01:33;;;;;;;17.47;7.67;;;;;;;1.59;72.38;98993.45;238632;1199;26172;-74
2021/03/23 06:07:01;;;;;;;18.63;8.93;;;;;;;1.67;71.60;98993.94;238598;1200;23133;-76
2021/03/23 06:12:21;;;;;;;18.03;8.57;;;;;;;1.75;71.52;98987.55;239170;1202;23110;-75
2021/03/23 06:17:45;;;;;;;21.63;8.90;;;;;;;1.81;71.21;98985.84;238787;1202;23114;-75
2021/03/23 06:23:22;;;;;;;21.57;9.83;;;;;;;1.98;71.25;99002.64;238520;1202;23115;-75
2021/03/23 06:28:53;;;;;;;21.67;10.13;;;;;;;2.15;71.08;98994.06;238451;1199;23141;-74
2021/03/23 06:33:55;;;;;;;18.55;8.40;;;;;;;2.35;71.29;98996.38;238472;1200;23351;-75
2021/03/23 06:38:58;;;;;;;15.70;7.13;;;;;;;2.48;70.58;98995.38;238701;1200;23109;-75
2021/03/23 06:44:13;;;;;;;13.67;7.10;;;;;;;2.56;70.93;98997.64;238861;1200;23109;-75
2021/03/23 06:49:16;;;;;;;11.97;5.77;;;;;;;2.81;70.72;99000.08;238768;1199;23201;-76
2021/03/23 06:54:25;;;;;;;11.17;6.90;;;;;;;2.95;69.98;99007.75;239125;1200;23075;-73
2021/03/23 06:59:28;;;;;;;18.07;8.57;;;;;;;3.03;70.02;99010.84;239085;1199;23388;-74
2021/03/23 07:04:38;;;;;;;17.00;8.13;;;;;;;3.05;69.48;99008.78;239448;1199;23108;-74
2021/03/23 07:09:57;;;;;;;15.90;9.00;;;;;;;3.07;69.36;99019.13;239085;1199;23314;-76
2021/03/23 07:15:11;;;;;;;21.20;8.05;;;;;;;3.15;68.67;99026.72;239197;1199;23653;-74
2021/03/23 07:20:29;;;;;;;20.83;9.40;;;;;;;3.26;69.29;99033.03;239437;1200;23113;-74
2021/03/23 07:25:37;;;;;;;18.83;9.20;;;;;;;3.30;68.83;99033.36;239033;1200;23114;-74
2021/03/23 07:30:44;;;;;;;15.57;8.43;;;;;;;3.29;68.56;99039.68;239072;1198;23121;-74
2021/03/23 07:35:49;;;;;;;16.63;7.73;;;;;;;3.33;68.61;99031.05;239230;1200;23125;-75
2021/03/23 07:40:53;;;;;;;16.50;8.10;;;;;;;3.44;68.60;99039.98;241456;1200;23691;-75
2021/03/23 07:46:14;;;;;;;14.20;7.30;;;;;;;3.59;68.50;99042.94;239364;1199;26124;-75
2021/03/23 07:51:26;;;;;;;12.27;6.70;;;;;;;3.60;68.15;99046.41;239290;1200;23141;-75
2021/03/23 07:56:55;;;;;;;14.57;7.10;;;;;;;3.59;67.81;99045.58;244200;1200;23109;-73
2021/03/23 08:02:33;;;;;;;15.20;6.40;;;;;;;3.71;67.85;99050.06;239311;1199;23116;-73
2021/03/23 08:07:40;;;;;;;16.37;6.67;;;;;;;3.74;68.09;99047.73;239421;1199;23115;-73
2021/03/23 08:13:05;;;;;;;12.85;5.85;;;;;;;3.77;68.03;99039.30;239555;1202;23250;-73
2021/03/23 08:18:29;;;;;;;12.47;5.53;;;;;;;3.84;67.99;99039.16;239205;1199;23128;-72
2021/03/23 08:23:43;;;;;;;11.50;5.10;;;;;;;3.92;68.44;99045.94;238981;1200;23106;-75
2021/03/23 08:28:56;;;;;;;9.73;4.90;;;;;;;3.89;67.89;99043.73;238928;1200;23109;-73
2021/03/23 08:34:07;;;;;;;10.70;5.37;;;;;;;3.81;68.59;99054.75;238946;1200;23126;-72
2021/03/23 08:39:48;;;;;;;10.75;5.35;;;;;;;3.69;69.13;99070.67;238967;1200;23138;-73
2021/03/23 08:44:55;;;;;;;11.97;4.57;;;;;;;3.46;70.54;99064.41;239590;1200;23139;-73
2021/03/23 08:50:17;;;;;;;11.70;4.70;;;;;;;3.31;70.90;99061.45;239609;1200;23150;-74
2021/03/23 08:55:29;;;;;;;9.47;4.70;;;;;;;3.27;71.09;99055.02;243805;1200;26304;-73
2021/03/23 09:00:38;;;;;;;11.50;5.87;;;;;;;3.29;71.42;99060.86;239453;1199;23111;-73
2021/03/23 09:05:51;;;;;;;14.50;6.80;;;;;;;3.40;72.00;99057.38;240626;1199;23104;-71
2021/03/23 09:11:05;;;;;;;9.50;5.67;;;;;;;3.47;72.16;99068.67;239105;1200;23114;-73
2021/03/23 09:16:10;;;;;;;14.57;5.83;;;;;;;3.49;71.58;99071.88;239384;1200;23176;-73
2021/03/23 09:21:13;;;;;;;12.23;6.33;;;;;;;3.52;72.21;99075.91;239168;1200;23188;-73
2021/03/23 09:26:31;;;;;;;10.90;5.37;;;;;;;3.48;72.53;99077.41;239168;1200;23247;-74
2021/03/23 09:31:48;;;;;;;10.93;6.70;;;;;;;3.49;72.80;99077.18;238914;1200;23107;-73
2021/03/23 09:36:52;;;;;;;13.83;6.67;;;;;;;3.71;73.39;99074.70;238886;1200;23126;-73
2021/03/23 09:42:20;;;;;;;13.00;6.30;;;;;;;4.04;73.56;99069.73;239101;1199;26150;-73
2021/03/23 09:47:39;;;;;;;12.40;7.10;;;;;;;4.43;73.87;99059.25;239324;1199;23139;-75
2021/03/23 09:52:42;;;;;;;10.30;5.97;;;;;;;4.66;72.53;99058.30;240483;1200;23112;-74
2021/03/23 09:57:54;;;;;;;13.73;7.77;;;;;;;4.61;72.83;99066.17;239226;1200;23144;-73
2021/03/23 10:02:57;;;;;;;14.75;6.80;;;;;;;4.39;72.47;99069.55;239131;1200;25962;-72
2021/03/23 10:08:32;;;;;;;12.95;6.50;;;;;;;4.22;73.10;99068.72;239137;1199;25969;-74
2021/03/23 10:13:53;;;;;;;12.07;6.80;;;;;;;4.02;73.50;99083.23;239192;1200;23181;-74
2021/03/23 10:19:21;;;;;;;15.03;8.23;;;;;;;3.85;74.17;99069.93;241283;1199;24587;-74
2021/03/23 10:24:41;;;;;;;13.30;7.93;;;;;;;4.04;74.81;99072.38;239272;1200;23127;-74
2021/03/23 10:30:29;;;;;;;12.65;7.75;;;;;;;4.40;75.14;99065.05;239053;1199;27217;-74
2021/03/23 10:35:37;;;;;;;10.50;6.80;;;;;;;4.51;74.32;99069.47;238858;1200;23137;-75
2021/03/23 10:40:41;;;;;;;13.27;7.87;;;;;;;4.41;74.50;99071.97;238930;1200;23116;-74
2021/03/23 10:45:45;;;;;;;12.83;7.77;;;;;;;4.28;74.69;99075.70;239164;1202;23166;-74
2021/03/23 10:51:25;;;;;;;14.30;7.83;;;;;;;4.22;74.81;99080.13;238984;1199;23115;-75
2021/03/23 10:56:33;;;;;;;14.57;8.73;;;;;;;4.17;75.01;99074.75;239274;1199;23270;-73
2021/03/23 11:01:38;;;;;;;13.40;9.60;;;;;;;4.14;75.12;99077.88;239190;1199;23138;-73
2021/03/23 11:06:42;;;;;;;13.93;10.40;;;;;;;4.21;75.61;99078.53;239227;1200;23112;-73
2021/03/23 11:11:46;;;;;;;16.90;9.93;;;;;;;4.44;75.54;99069.62;239210;1200;23111;-74
2021/03/23 11:16:53;;;;;;;15.53;9.20;;;;;;;4.89;75.20;99067.91;239146;1200;23117;-75
2021/03/23 11:21:59;;;;;;;13.23;9.57;;;;;;;5.42;74.88;99078.19;239504;1200;23134;-76
2021/03/23 11:27:02;;;;;;;16.40;9.57;;;;;;;5.76;73.96;99083.36;239521;1199;23104;-75
2021/03/23 11:32:05;;;;;;;10.97;8.20;;;;;;;5.99;73.11;99072.48;239218;1200;23104;-76
2021/03/23 11:37:08;;;;;;;12.03;8.93;;;;;;;6.07;72.67;99075.73;239231;1199;23110;-76
2021/03/23 11:42:27;;;;;;;11.80;8.40;;;;;;;6.06;72.15;99074.95;238916;1199;23109;-75
2021/03/23 11:47:42;;;;;;;11.73;8.30;;;;;;;6.08;72.27;99069.38;239243;1199;23161;-75
2021/03/23 11:52:46;;;;;;;11.10;8.10;;;;;;;6.17;72.15;99065.22;239003;1200;24758;-75
2021/03/23 11:57:50;;;;;;;11.77;7.73;;;;;;;6.12;71.15;99065.16;239110;1198;23139;-75
2021/03/23 12:02:53;;;;;;;10.10;6.45;;;;;;;6.01;70.56;99060.80;243628;1199;23111;-75
2021/03/23 12:08:23;;;;;;;8.35;5.80;;;;;;;5.84;70.36;99059.00;239253;1200;23115;-74
2021/03/23 12:13:25;;;;;;;9.25;5.40;;;;;;;5.71;69.95;99062.03;239113;1200;23115;-75
2021/03/23 12:18:32;;;;;;;9.37;6.20;;;;;;;5.78;70.64;99066.11;239065;1199;23167;-74
2021/03/23 12:23:35;;;;;;;8.07;5.90;;;;;;;6.07;71.25;99055.28;239504;1200;23344;-74
2021/03/23 12:28:40;;;;;;;6.20;4.60;;;;;;;6.37;70.00;99074.44;239680;1200;23317;-74
2021/03/23 12:33:43;;;;;;;7.10;5.20;;;;;;;6.82;70.49;99055.33;239234;1200;23116;-74
2021/03/23 12:38:50;;;;;;;9.17;5.07;;;;;;;7.17;69.35;99061.13;239419;1200;26036;-75
2021/03/23 12:43:53;;;;;;;7.93;4.37;;;;;;;7.18;67.12;99071.52;239047;1199;26282;-74
2021/03/23 12:48:56;;;;;;;6.27;4.50;;;;;;;7.01;66.13;99066.38;239147;1200;23118;-74
2021/03/23 12:53:59;;;;;;;7.75;4.90;;;;;;;6.91;67.12;99076.98;239151;1200;25909;-74
2021/03/23 12:59:02;;;;;;;7.87;5.00;;;;;;;6.89;67.90;99080.95;238966;1199;26117;-74
2021/03/23 13:04:05;;;;;;;8.23;6.00;;;;;;;6.81;67.26;99075.05;239018;1200;23125;-74
2021/03/23 13:09:11;;;;;;;9.03;5.70;;;;;;;6.70;66.93;99064.56;239179;1200;23245;-75
2021/03/23 13:14:21;;;;;;;6.17;4.23;;;;;;;6.62;66.40;99065.85;239552;1200;23145;-74
2021/03/23 13:19:24;;;;;;;6.70;5.00;;;;;;;6.56;67.14;99058.87;239240;1200;23127;-75
2021/03/23 13:24:37;;;;;;;11.13;7.13;;;;;;;6.67;67.10;99063.20;239080;1199;23238;-73
2021/03/23 13:29:39;;;;;;;12.40;7.30;;;;;;;6.54;67.65;99056.47;238875;1200;23135;-74
2021/03/23 13:34:42;;;;;;;7.95;5.85;;;;;;;6.36;67.83;99080.80;238837;1199;23109;-74
2021/03/23 13:39:50;;;;;;;8.60;6.40;;;;;;;6.21;68.67;99084.12;238857;1199;23107;-74
2021/03/23 13:45:05;;;;;;;9.77;6.27;;;;;;;6.10;69.00;99069.91;238871;1200;23110;-75
2021/03/23 13:50:10;;;;;;;13.55;7.70;;;;;;;6.09;69.03;99069.12;239225;1198;23129;-76
2021/03/23 13:55:24;;;;;;;8.10;5.70;;;;;;;6.13;69.44;99067.56;239077;1200;23115;-75
2021/03/23 14:00:34;;;;;;;7.23;5.77;;;;;;;6.09;69.16;99079.75;239493;1200;23213;-74
2021/03/23 14:05:37;;;;;;;7.15;5.03;;;;;;;6.05;69.31;99064.56;240576;1200;23127;-75
2021/03/23 14:10:43;;;;;;;8.67;5.63;;;;;;;6.01;69.38;99071.44;239711;1199;23173;-74
2021/03/23 14:15:46;;;;;;;9.55;6.00;;;;;;;5.97;69.68;99066.63;239425;1199;23251;-75
2021/03/23 14:20:51;;;;;;;8.30;5.47;;;;;;;5.96;69.50;99059.66;239513;1199;23127;-75
2021/03/23 14:25:56;;;;;;;8.97;6.00;;;;;;;5.99;69.49;99069.82;239571;1200;23226;-73
2021/03/23 14:31:01;;;;;;;8.80;5.37;;;;;;;6.03;69.36;99051.52;239670;1200;26223;-74
2021/03/23 14:36:05;;;;;;;9.80;5.73;;;;;;;6.17;69.55;99051.91;239448;1199;23125;-72
2021/03/23 14:41:25;;;;;;;7.87;6.60;;;;;;;6.40;69.12;99071.27;239341;1199;23280;-74
2021/03/23 14:46:30;;;;;;;8.70;6.55;;;;;;;6.48;68.63;99076.13;239329;1200;23280;-75
2021/03/23 14:51:37;;;;;;;11.10;6.30;;;;;;;6.43;69.00;99078.73;239487;1200;23329;-75
2021/03/23 14:56:40;;;;;;;11.55;6.30;;;;;;;6.30;69.10;99082.62;239937;1200;23111;-74
2021/03/23 15:01:44;;;;;;;9.73;5.97;;;;;;;6.14;69.69;99078.99;239182;1200;26188;-73
2021/03/23 15:06:49;;;;;;;9.53;5.40;;;;;;;6.01;69.37;99071.44;240144;1200;23250;-73
2021/03/23 15:11:53;;;;;;;9.60;6.63;;;;;;;5.94;69.87;99064.41;239432;1199;26093;-75
2021/03/23 15:16:56;;;;;;;9.80;5.80;;;;;;;6.00;70.18;99073.27;239111;1199;23105;-74
2021/03/23 15:21:59;;;;;;;9.53;6.53;;;;;;;6.01;70.52;99066.91;238626;1201;26111;-73
2021/03/23 15:27:02;;;;;;;10.00;7.10;;;;;;;6.10;70.24;99069.91;238454;1200;23109;-74
2021/03/23 15:32:06;;;;;;;9.10;5.90;;;;;;;6.11;70.01;99063.55;238577;1200;23129;-74
2021/03/23 15:37:19;;;;;;;10.70;6.90;;;;;;;6.09;69.99;99047.05;238488;1200;23103;-73
2021/03/23 15:42:26;;;;;;;12.83;8.57;;;;;;;5.96;70.38;99061.50;238833;1200;23296;-72
2021/03/23 15:47:28;;;;;;;11.20;7.37;;;;;;;5.86;70.70;99067.51;238553;1200;23108;-73
2021/03/23 15:52:31;;;;;;;12.30;7.50;;;;;;;5.82;70.90;99075.20;238405;1200;23111;-73
2021/03/23 15:57:34;;;;;;;8.93;6.73;;;;;;;5.90;70.71;99092.55;238502;1200;23266;-74
2021/03/23 16:02:38;;;;;;;9.20;6.40;;;;;;;5.93;70.93;99099.23;238546;1199;23139;-73
2021/03/23 16:07:41;;;;;;;10.10;6.60;;;;;;;5.90;70.64;99110.38;238500;1200;23116;-74
2021/03/23 16:12:44;;;;;;;8.73;6.10;;;;;;;5.79;70.78;99099.63;238490;1200;23118;-73
2021/03/23 16:17:48;;;;;;;10.53;7.00;;;;;;;5.65;71.30;99101.04;238773;1199;23119;-73
2021/03/23 16:22:55;;;;;;;9.03;6.23;;;;;;;5.51;71.31;99108.58;238797;1200;23138;-74
2021/03/23 16:27:59;;;;;;;9.40;6.77;;;;;;;5.40;71.42;99114.81;238478;1200;23107;-74
2021/03/23 16:33:02;;;;;;;10.20;6.90;;;;;;;5.35;71.97;99109.45;238654;1199;23242;-75
2021/03/23 16:38:06;;;;;;;14.73;8.30;;;;;;;5.35;71.90;99114.77;238567;1200;23247;-75
2021/03/23 16:43:35;;;;;;;14.87;8.20;;;;;;;5.31;72.28;99125.06;238433;1200;23112;-74
2021/03/23 16:48:59;;;;;;;13.60;9.15;;;;;;;5.26;72.40;99124.98;238604;1200;23308;-75
2021/03/23 16:54:03;;;;;;;16.80;10.43;;;;;;;5.21;72.58;99112.44;238450;1198;23081;-74
2021/03/23 16:59:06;;;;;;;17.47;10.63;;;;;;;5.08;72.72;99123.42;239111;1199;23164;-74
2021/03/23 17:04:09;;;;;;;17.80;10.97;;;;;;;4.90;73.13;99124.48;239016;1200;23112;-75
2021/03/23 17:09:12;;;;;;;17.43;10.23;;;;;;;4.75;73.68;99131.14;238951;1199;26226;-74
2021/03/23 17:14:25;;;;;;;15.43;9.77;;;;;;;4.63;74.17;99143.67;238506;1200;24515;-74
2021/03/23 17:19:27;;;;;;;19.87;11.33;;;;;;;4.54;74.46;99151.23;238609;1200;23138;-73
2021/03/23 17:24:31;;;;;;;15.83;9.43;;;;;;;4.54;75.14;99147.78;238936;1200;23107;-75
2021/03/23 17:29:34;;;;;;;11.83;7.97;;;;;;;4.49;75.42;99147.69;238518;1200;23115;-74
2021/03/23 17:34:36;;;;;;;16.20;9.37;;;;;;;4.48;75.55;99159.33;238658;1202;23216;-73
2021/03/23 17:39:40;;;;;;;16.05;11.15;;;;;;;4.47;76.10;99171.01;238567;1200;23558;-75
2021/03/23 17:44:48;;;;;;;16.10;10.10;;;;;;;4.44;75.89;99173.08;238652;1200;23117;-74
2021/03/23 17:49:50;;;;;;;18.40;12.20;;;;;;;4.38;76.09;99174.04;238931;1200;23193;-74
2021/03/23 17:54:53;;;;;;;19.40;11.60;;;;;;;4.35;76.81;99173.70;238540;1200;23117;-74
2021/03/23 17:59:56;;;;;;;19.77;12.23;;;;;;;4.30;76.89;99186.89;239099;1200;23147;-75
2021/03/23 18:04:59;;;;;;;23.90;15.60;;;;;;;4.26;77.08;99175.94;238473;1200;23111;-73
2021/03/23 18:10:01;;;;;;;25.70;15.10;;;;;;;4.23;77.28;99195.77;238607;1199;23114;-74
2021/03/23 18:15:12;;;;;;;;;;;;;;;4.24;77.54;99197.39;238584;1204;23074;-73
2021/03/23 18:20:18;;;;;;;21.20;12.65;;;;;;;4.24;77.74;99202.69;238458;1202;25191;-74
2021/03/23 18:25:28;;;;;;;20.50;13.27;;;;;;;4.23;78.11;99197.63;238729;1199;23184;-73
2021/03/23 18:30:31;;;;;;;21.00;12.85;;;;;;;4.22;78.14;99201.31;238536;1200;23099;-73
2021/03/23 18:35:39;;;;;;;21.27;13.63;;;;;;;4.16;77.96;99207.57;238603;1200;23137;-75
2021/03/23 18:40:42;;;;;;;24.27;14.23;;;;;;;4.05;78.44;99201.25;238793;1200;23115;-74
2021/03/23 18:45:46;;;;;;;24.17;14.37;;;;;;;3.93;78.18;99203.91;238495;1200;23129;-73
2021/03/23 18:50:49;;;;;;;28.77;14.97;;;;;;;3.84;78.60;99215.94;238779;1200;23119;-74
2021/03/23 18:55:52;;;;;;;25.17;15.70;;;;;;;3.81;78.72;99217.20;238521;1199;23363;-74
2021/03/23 19:00:55;;;;;;;22.63;12.00;;;;;;;3.80;78.96;99215.58;238665;1200;23118;-74
2021/03/23 19:05:58;;;;;;;20.90;13.20;;;;;;;3.79;79.17;99216.61;238501;1199;24367;-74
2021/03/23 19:11:01;;;;;;;19.63;12.57;;;;;;;3.85;78.92;99217.56;238529;1202;23404;-74
2021/03/23 19:16:05;;;;;;;19.03;11.83;;;;;;;3.89;79.42;99224.80;238516;1199;24734;-75
2021/03/23 19:21:11;;;;;;;22.03;13.27;;;;;;;3.94;79.47;99221.44;238568;1202;23115;-73
2021/03/23 19:26:14;;;;;;;16.50;10.45;;;;;;;3.96;79.25;99222.03;238557;1200;23103;-74
2021/03/23 19:31:20;;;;;;;20.07;11.87;;;;;;;3.99;79.68;99213.60;238706;1200;23190;-74
2021/03/23 19:36:23;;;;;;;16.87;11.60;;;;;;;4.03;79.69;99217.39;238444;1202;24755;-74
2021/03/23 19:41:25;;;;;;;18.20;11.17;;;;;;;4.03;79.53;99211.27;238464;1200;23123;-74
2021/03/23 19:46:28;;;;;;;20.43;12.33;;;;;;;4.06;79.51;99219.58;238637;1202;23112;-73
2021/03/23 19:51:33;;;;;;;20.30;12.17;;;;;;;4.07;79.38;99220.37;238549;1199;23105;-74
2021/03/23 19:56:36;;;;;;;18.73;11.57;;;;;;;4.05;79.29;99228.56;238548;1200;23202;-74
2021/03/23 20:01:39;;;;;;;18.35;11.40;;;;;;;4.10;79.32;99236.63;238702;1200;23106;-73
2021/03/23 20:06:43;;;;;;;14.80;10.00;;;;;;;4.16;79.53;99229.58;238473;1202;23087;-75
2021/03/23 20:11:46;;;;;;;16.17;10.03;;;;;;;4.17;79.58;99235.67;238633;1202;23244;-73
2021/03/23 20:16:49;;;;;;;18.20;10.85;;;;;;;4.14;79.13;99242.28;238543;1200;23103;-74
2021/03/23 20:21:53;;;;;;;18.70;11.80;;;;;;;4.14;79.51;99247.59;238680;1199;23098;-74
2021/03/23 20:26:56;;;;;;;21.20;11.80;;;;;;;4.11;79.48;99248.86;238640;1199;23155;-75
2021/03/23 20:31:59;;;;;;;18.70;11.43;;;;;;;4.09;79.41;99244.82;238562;1200;23543;-74
2021/03/23 20:37:02;;;;;;;20.03;12.20;;;;;;;4.04;79.66;99250.01;238772;1200;23135;-75
2021/03/23 20:42:05;;;;;;;20.80;11.90;;;;;;;4.02;79.42;99252.09;238806;1199;23105;-74
2021/03/23 20:47:07;;;;;;;20.03;11.90;;;;;;;4.02;79.48;99254.75;238826;1203;23320;-74
2021/03/23 20:52:14;;;;;;;19.47;10.90;;;;;;;4.02;79.79;99260.84;238728;1197;26127;-75
2021/03/23 20:57:17;;;;;;;20.87;12.73;;;;;;;3.98;79.81;99258.91;238819;1199;23253;-75
2021/03/23 21:02:20;;;;;;;23.27;12.20;;;;;;;3.98;79.45;99258.91;238543;1200;23118;-73
2021/03/23 21:07:26;;;;;;;22.43;12.43;;;;;;;3.97;79.62;99260.73;238534;1200;23545;-74
2021/03/23 21:12:29;;;;;;;15.63;10.07;;;;;;;3.96;79.67;99266.27;238616;1199;27527;-75
2021/03/23 21:17:33;;;;;;;15.30;9.40;;;;;;;3.98;80.06;99264.20;238828;1200;23098;-73
2021/03/23 21:22:37;;;;;;;15.40;9.77;;;;;;;3.97;79.55;99273.19;238631;1202;23136;-73
2021/03/23 21:27:40;;;;;;;16.35;9.95;;;;;;;3.97;79.85;99271.34;238531;1199;23131;-75
2021/03/23 21:32:43;;;;;;;16.60;10.30;;;;;;;3.95;79.72;99268.13;238518;1200;23107;-75
2021/03/23 21:37:45;;;;;;;15.27;8.77;;;;;;;3.87;80.02;99277.22;238560;1200;23137;-74
2021/03/23 21:42:48;;;;;;;13.53;8.73;;;;;;;3.77;80.22;99269.05;238393;1200;23114;-74
2021/03/23 21:47:52;;;;;;;15.40;8.45;;;;;;;3.65;80.29;99268.25;238644;1200;23136;-74
2021/03/23 21:52:55;;;;;;;13.67;8.90;;;;;;;3.53;79.76;99276.20;238464;1200;23116;-73
2021/03/23 21:58:00;;;;;;;15.80;8.85;;;;;;;3.43;80.30;99271.48;238595;1199;25372;-73
2021/03/23 22:03:16;;;;;;;13.43;7.90;;;;;;;3.36;80.34;99278.72;238614;1200;23189;-74
2021/03/23 22:08:23;;;;;;;15.50;8.93;;;;;;;3.29;80.26;99278.83;238691;1200;23205;-74
2021/03/23 22:13:26;;;;;;;14.50;8.40;;;;;;;3.21;80.19;99273.86;238553;1200;23119;-75
2021/03/23 22:18:31;;;;;;;14.40;8.80;;;;;;;3.16;79.99;99284.31;238404;1200;23118;-74
2021/03/23 22:23:39;;;;;;;14.80;8.63;;;;;;;3.14;80.14;99287.19;238477;1198;23212;-74
2021/03/23 22:28:41;;;;;;;15.00;8.27;;;;;;;3.13;80.45;99282.92;238381;1199;23124;-74
2021/03/23 22:33:46;;;;;;;12.10;7.55;;;;;;;3.14;80.48;99281.89;238524;1202;23283;-73
2021/03/23 22:38:49;;;;;;;12.23;7.63;;;;;;;3.13;80.23;99293.51;238557;1199;23109;-73
2021/03/23 22:43:52;;;;;;;13.60;7.90;;;;;;;3.11;80.51;99294.80;238427;1200;23431;-74
2021/03/23 22:48:55;;;;;;;14.20;7.70;;;;;;;3.11;80.76;99297.44;238404;1200;23237;-74
2021/03/23 22:53:58;;;;;;;11.65;7.55;;;;;;;3.13;80.42;99298.80;238536;1200;23137;-74
2021/03/23 22:59:03;;;;;;;13.45;7.60;;;;;;;3.17;80.77;99296.52;238632;1200;23111;-74
2021/03/23 23:04:07;;;;;;;13.50;7.45;;;;;;;3.20;80.49;99296.06;238520;1200;23130;-74
2021/03/23 23:09:10;;;;;;;13.47;7.37;;;;;;;3.24;80.70;99300.67;238619;1200;25962;-74
2021/03/23 23:14:13;;;;;;;12.20;7.43;;;;;;;3.29;80.65;99288.59;238639;1200;23108;-73
2021/03/23 23:19:21;;;;;;;12.55;7.00;;;;;;;3.32;80.68;99296.90;238458;1199;23142;-74
2021/03/23 23:24:26;;;;;;;10.97;7.27;;;;;;;3.40;80.77;99301.05;238547;1200;23138;-77
2021/03/23 23:29:31;;;;;;;12.70;7.20;;;;;;;3.47;80.28;99295.64;238429;1199;23167;-74
2021/03/23 23:34:33;;;;;;;11.83;7.03;;;;;;;3.51;80.31;99292.33;238541;1200;23105;-73
2021/03/23 23:39:36;;;;;;;11.45;7.25;;;;;;;3.57;80.11;99293.25;238385;1199;23267;-73
2021/03/23 23:44:39;;;;;;;12.93;7.37;;;;;;;3.64;79.97;99309.02;238339;1200;23513;-73